Time;durP1;ratioP1;P1;durP2;ratioP2;P2;SDS_P1;SDS_P2;PMS_P1;PMS_P2;Temp;Humidity;BMP_temperature;BMP_pressure;BME280_temperature;BME280_humidity;BME280_pressure;Samples;Min_cycle;Max_cycle;Signal;HPM_P1;HPM_P2
2024/01/16 00:00:50;;;;;;;4.35;0.30;;;;;;;-146.25;100.00;52727.09;2016110;29;35205;-63
2024/01/16 00:01:52;;;;;;;5.47;0.40;;;;;;;-146.25;100.00;52745.34;2017716;29;20034;-63
2024/01/16 00:02:54;;;;;;;6.68;0.30;;;;;;;-146.25;100.00;52708.84;2016589;29;37856;-65
2024/01/16 00:03:59;;;;;;;4.00;0.40;;;;;;;-146.25;100.00;52727.09;2017021;29;20725;-66
2024/01/16 00:05:01;;;;;;;2.00;0.20;;;;;;;-146.25;100.00;52729.13;2017008;29;31484;-65
2024/01/16 00:06:04;;;;;;;5.05;0.30;;;;;;;-146.25;100.00;52729.13;2017026;29;37118;-65
2024/01/16 00:07:06;;;;;;;3.83;0.30;;;;;;;-146.25;100.00;52739.25;2016899;29;33968;-65
2024/01/16 00:08:10;;;;;;;3.53;0.50;;;;;;;-146.25;100.00;52694.66;2017051;29;31150;-65
2024/01/16 00:09:12;;;;;;;4.55;0.25;;;;;;;-146.25;100.00;52696.69;2017660;29;30721;-63
2024/01/16 00:10:16;;;;;;;4.97;0.22;;;;;;;-146.25;100.00;52704.78;2017242;29;20034;-63
2024/01/16 00:11:18;;;;;;;3.22;0.20;;;;;;;-146.25;100.00;52727.09;2016972;29;39920;-64
2024/01/16 00:12:20;;;;;;;5.65;0.25;;;;;;;-146.25;100.00;52692.63;2017117;29;34102;-65
2024/01/16 00:13:22;;;;;;;4.78;0.22;;;;;;;-146.25;100.00;52716.97;2017207;29;34161;-66
2024/01/16 00:14:24;;;;;;;3.90;0.30;;;;;;;-146.25;100.00;52712.91;2017343;29;23258;-65
2024/01/16 00:15:28;;;;;;;3.22;0.20;;;;;;;-146.25;100.00;52694.66;2017638;29;20042;-65
2024/01/16 00:16:29;;;;;;;1.67;0.10;;;;;;;-146.25;100.00;52733.19;2016547;29;34483;-66
2024/01/16 00:17:31;;;;;;;4.45;0.38;;;;;;;-146.25;100.00;52704.78;2017218;29;35002;-63
2024/01/16 00:18:34;;;;;;;4.93;0.30;;;;;;;-146.25;100.00;52692.63;2017113;29;20041;-65
2024/01/16 00:19:36;;;;;;;2.67;0.10;;;;;;;-146.25;100.00;52749.41;2016268;29;35356;-65
2024/01/16 00:20:38;;;;;;;1.02;0.10;;;;;;;-146.25;100.00;52708.84;2017152;29;33147;-65
2024/01/16 00:21:45;;;;;;;2.70;0.08;;;;;;;-146.25;100.00;52712.91;2017758;29;20049;-64
2024/01/16 00:22:47;;;;;;;2.25;0.10;;;;;;;-146.25;100.00;52731.16;2016773;29;36226;-65
2024/01/16 00:23:51;;;;;;;1.70;0.20;;;;;;;-146.25;100.00;52700.72;2017140;29;33638;-65
2024/01/16 00:24:53;;;;;;;3.03;0.10;;;;;;;-146.25;100.00;52723.03;2017596;29;20941;-64
2024/01/16 00:25:54;;;;;;;1.33;0.10;;;;;;;-146.25;100.00;52721.00;2016890;29;35110;-64
2024/01/16 00:26:57;;;;;;;4.40;0.20;;;;;;;-146.25;100.00;52727.09;2017490;29;20053;-64
2024/01/16 00:27:59;;;;;;;1.15;0.10;;;;;;;-146.25;100.00;52708.84;2017579;29;20045;-65
2024/01/16 00:29:02;;;;;;;1.15;0.10;;;;;;;-146.25;100.00;52725.06;2016236;29;36858;-65
2024/01/16 00:30:06;;;;;;;1.55;0.10;;;;;;;-146.25;100.00;52718.97;2016800;29;35831;-65
2024/01/16 00:31:10;;;;;;;1.25;0.10;;;;;;;-146.25;100.00;52696.69;2017062;29;33980;-65
2024/01/16 00:32:15;;;;;;;1.42;0.05;;;;;;;-146.25;100.00;52698.72;2016655;29;38480;-65
2024/01/16 00:33:20;;;;;;;0.90;0.10;;;;;;;-146.25;100.00;52696.69;2016455;29;37857;-65
2024/01/16 00:34:22;;;;;;;1.08;0.00;;;;;;;-146.25;100.00;52704.78;2017489;29;20168;-65
2024/01/16 00:35:23;;;;;;;1.63;0.00;;;;;;;-146.25;100.00;52704.78;2016684;29;39164;-65
2024/01/16 00:36:27;;;;;;;2.42;0.00;;;;;;;-146.25;100.00;52731.16;2016947;29;33688;-65
2024/01/16 00:37:29;;;;;;;2.33;0.00;;;;;;;-146.25;100.00;52702.75;2016759;29;34837;-65
2024/01/16 00:38:35;;;;;;;0.68;0.05;;;;;;;-146.25;100.00;52692.63;2016767;29;37830;-64
2024/01/16 00:39:37;;;;;;;0.60;0.10;;;;;;;-146.25;100.00;52725.06;2017305;29;20050;-65
2024/01/16 00:40:39;;;;;;;1.70;0.35;;;;;;;-146.25;100.00;52735.22;2016422;29;34091;-63
2024/01/16 00:41:40;;;;;;;2.33;0.10;;;;;;;-146.25;100.00;52749.41;2016198;29;32387;-65
2024/01/16 00:42:43;;;;;;;0.63;0.17;;;;;;;-146.25;100.00;52759.53;2017430;29;20886;-65
2024/01/16 00:43:45;;;;;;;2.08;0.10;;;;;;;-146.25;100.00;52714.94;2016089;29;37022;-63
2024/01/16 00:44:49;;;;;;;2.70;0.10;;;;;;;-146.25;100.00;52694.66;2016739;29;20041;-63
2024/01/16 00:45:50;;;;;;;1.60;0.08;;;;;;;-146.25;100.00;52735.22;2017598;29;20053;-64
2024/01/16 00:46:52;;;;;;;4.35;0.03;;;;;;;-146.25;100.00;52704.78;2016201;29;34659;-64
2024/01/16 00:47:54;;;;;;;0.68;0.08;;;;;;;-146.25;100.00;52704.78;2016857;29;33316;-64
2024/01/16 00:48:56;;;;;;;2.67;0.00;;;;;;;-146.25;100.00;52694.66;2017487;29;20049;-65
2024/01/16 00:50:00;;;;;;;1.98;0.00;;;;;;;-146.25;100.00;52710.88;2016675;29;38253;-65
2024/01/16 00:51:06;;;;;;;0.30;0.00;;;;;;;-146.25;100.00;52725.06;2016681;29;37868;-65
2024/01/16 00:52:08;;;;;;;2.13;0.10;;;;;;;-146.25;100.00;52696.69;2017219;29;31410;-64
2024/01/16 00:53:10;;;;;;;1.10;0.10;;;;;;;-146.25;100.00;52686.53;2017172;29;36440;-63
2024/01/16 00:54:11;;;;;;;1.60;0.03;;;;;;;-146.25;100.00;52739.25;2016871;29;35889;-64
2024/01/16 00:55:13;;;;;;;3.22;0.10;;;;;;;-146.25;100.00;52704.78;2016930;29;32612;-64
2024/01/16 00:56:15;;;;;;;4.22;0.10;;;;;;;-146.25;100.00;52757.50;2016841;29;38795;-65
2024/01/16 00:57:19;;;;;;;2.03;0.10;;;;;;;-146.25;100.00;52733.19;2017653;29;20048;-65
2024/01/16 00:58:24;;;;;;;0.77;0.00;;;;;;;-146.25;100.00;52708.84;2016449;29;36518;-64
2024/01/16 00:59:26;;;;;;;1.55;0.10;;;;;;;-146.25;100.00;52692.63;2016688;29;38406;-65
2024/01/16 01:00:30;;;;;;;3.40;0.10;;;;;;;-146.25;100.00;52688.56;2016993;29;31574;-65
2024/01/16 01:01:32;;;;;;;1.77;0.20;;;;;;;-146.25;100.00;52729.13;2015982;29;35813;-65
2024/01/16 01:02:36;;;;;;;3.17;0.15;;;;;;;-146.25;100.00;52729.13;2017041;29;33883;-64
2024/01/16 01:03:38;;;;;;;1.95;0.10;;;;;;;-146.25;100.00;52745.34;2016828;29;33750;-65
2024/01/16 01:04:41;;;;;;;2.35;0.10;;;;;;;-146.25;100.00;52698.72;2016604;29;33642;-65
2024/01/16 01:05:45;;;;;;;1.50;0.10;;;;;;;-146.25;100.00;52710.88;2015863;29;36758;-65
2024/01/16 01:06:47;;;;;;;2.67;0.10;;;;;;;-146.25;100.00;52714.94;2015963;29;31542;-65
2024/01/16 01:07:49;;;;;;;2.15;0.10;;;;;;;-146.25;100.00;52735.22;2016767;29;36706;-64
2024/01/16 01:08:51;;;;;;;3.00;0.10;;;;;;;-146.25;100.00;52704.78;2016413;29;32013;-64
2024/01/16 01:09:53;;;;;;;3.97;0.10;;;;;;;-146.25;100.00;52700.72;2016849;29;31559;-64
2024/01/16 01:10:55;;;;;;;2.35;0.13;;;;;;;-146.25;100.00;52698.72;2016706;29;35902;-64
2024/01/16 01:11:56;;;;;;;2.70;0.55;;;;;;;-146.25;100.00;52749.41;2016709;29;32666;-65
2024/01/16 01:12:58;;;;;;;3.08;0.20;;;;;;;-146.25;100.00;52718.97;2016866;29;31270;-64
2024/01/16 01:14:00;;;;;;;3.40;0.20;;;;;;;-146.25;100.00;52718.97;2016956;29;24512;-64
2024/01/16 01:15:02;;;;;;;6.05;0.40;;;;;;;-146.25;100.00;52737.22;2016839;29;24305;-64
2024/01/16 01:16:04;;;;;;;2.03;0.30;;;;;;;-146.25;100.00;52735.22;2017368;29;20057;-65
2024/01/16 01:17:06;;;;;;;3.67;0.32;;;;;;;-146.25;100.00;52731.16;2016607;29;22412;-64
2024/01/16 01:18:08;;;;;;;4.22;0.40;;;;;;;-146.25;100.00;52712.91;2017137;29;24424;-64
2024/01/16 01:19:10;;;;;;;5.10;0.30;;;;;;;-146.25;100.00;52729.13;2017329;29;20866;-64
2024/01/16 01:20:14;;;;;;;2.80;0.30;;;;;;;-146.25;100.00;52727.09;2017029;29;27067;-64
2024/01/16 01:21:25;;;;;;;3.13;0.30;;;;;;;-146.25;100.00;52743.31;2016366;29;35926;-64
2024/01/16 01:22:26;;;;;;;2.13;0.20;;;;;;;-146.25;100.00;52694.66;2015797;29;32285;-64
2024/01/16 01:23:28;;;;;;;1.75;0.10;;;;;;;-146.25;100.00;52692.63;2016249;29;33547;-64
2024/01/16 01:24:30;;;;;;;3.22;0.22;;;;;;;-146.25;100.00;52684.50;2016402;29;32860;-64
2024/01/16 01:25:31;;;;;;;2.47;0.20;;;;;;;-146.25;100.00;52690.59;2016395;29;38109;-64
2024/01/16 01:26:33;;;;;;;3.72;0.20;;;;;;;-146.25;100.00;52741.28;2016643;29;36882;-64
2024/01/16 01:27:35;;;;;;;2.15;0.30;;;;;;;-146.25;100.00;52692.63;2016380;29;33069;-64
2024/01/16 01:28:39;;;;;;;4.40;0.40;;;;;;;-146.25;100.00;52731.16;2015760;29;38755;-64
2024/01/16 01:29:41;;;;;;;2.05;0.20;;;;;;;-146.25;100.00;52723.03;2016564;29;32723;-64
2024/01/16 01:30:43;;;;;;;2.85;0.20;;;;;;;-146.25;100.00;52708.84;2016545;29;33250;-64
2024/01/16 01:31:47;;;;;;;4.85;0.20;;;;;;;-146.25;100.00;52714.94;2016158;29;35594;-64
2024/01/16 01:32:49;;;;;;;2.05;0.20;;;;;;;-146.25;100.00;52688.56;2016071;29;37666;-64
2024/01/16 01:33:51;;;;;;;2.40;0.20;;;;;;;-146.25;100.00;52725.06;2016185;29;39129;-64
2024/01/16 01:34:53;;;;;;;5.30;0.30;;;;;;;-146.25;100.00;52749.41;2016678;29;31844;-63
2024/01/16 01:35:54;;;;;;;2.45;0.30;;;;;;;-146.25;100.00;52696.69;2016704;29;36883;-63
2024/01/16 01:36:58;;;;;;;5.40;0.30;;;;;;;-146.25;100.00;52721.00;2016355;29;35706;-64
2024/01/16 01:37:59;;;;;;;4.28;0.25;;;;;;;-146.25;100.00;52708.84;2017071;29;33262;-63
2024/01/16 01:39:05;;;;;;;2.30;0.22;;;;;;;-146.25;100.00;52710.88;2015558;29;37269;-64
2024/01/16 01:40:08;;;;;;;3.70;0.22;;;;;;;-146.25;100.00;52721.00;2015688;29;35162;-64
2024/01/16 01:41:11;;;;;;;4.15;0.30;;;;;;;-146.25;100.00;52710.88;2016585;29;34471;-64
2024/01/16 01:42:15;;;;;;;3.97;0.20;;;;;;;-146.25;100.00;52714.94;2008084;29;35253;-64
2024/01/16 01:43:23;;;;;;;4.70;0.30;;;;;;;-146.25;100.00;52725.06;2009283;29;20987;-64
2024/01/16 01:44:25;;;;;;;3.28;0.25;;;;;;;-146.25;100.00;52721.00;2016838;29;33800;-63
2024/01/16 01:45:27;;;;;;;3.70;0.30;;;;;;;-146.25;100.00;52676.41;2016206;29;34373;-64
2024/01/16 01:46:31;;;;;;;3.88;0.30;;;;;;;-146.25;100.00;52723.03;2016282;29;34970;-63
2024/01/16 01:47:32;;;;;;;2.63;0.35;;;;;;;-146.25;100.00;52698.72;2015214;29;36708;-64
2024/01/16 01:48:38;;;;;;;2.97;0.35;;;;;;;-146.25;100.00;52751.44;2016566;29;20084;-64
2024/01/16 01:49:43;;;;;;;2.40;0.35;;;;;;;-146.25;100.00;52729.13;2015747;29;34490;-64
2024/01/16 01:50:45;;;;;;;4.32;0.60;;;;;;;-146.25;100.00;52721.00;2016306;29;35455;-64
2024/01/16 01:51:47;;;;;;;5.22;0.40;;;;;;;-146.25;100.00;52696.69;2015392;29;36783;-64
2024/01/16 01:52:50;;;;;;;4.15;0.63;;;;;;;-146.25;100.00;52727.09;2015968;29;34225;-64
2024/01/16 01:53:52;;;;;;;6.72;0.50;;;;;;;-146.25;100.00;52654.09;2016309;29;34915;-64
2024/01/16 01:54:54;;;;;;;3.80;0.40;;;;;;;-146.25;100.00;52708.84;2015734;29;35869;-63
2024/01/16 01:55:56;;;;;;;3.08;0.43;;;;;;;-146.25;100.00;52712.91;2015776;29;32021;-64
2024/01/16 01:56:59;;;;;;;4.53;0.40;;;;;;;-146.25;100.00;52727.09;2016392;29;32776;-64
2024/01/16 01:58:04;;;;;;;3.50;0.43;;;;;;;-146.25;100.00;52672.34;2015395;29;33331;-63
2024/01/16 01:59:06;;;;;;;5.03;0.50;;;;;;;-146.25;100.00;52690.59;2015219;29;34908;-64
2024/01/16 02:00:09;;;;;;;4.07;0.60;;;;;;;-146.25;100.00;52704.78;2016807;29;20037;-64
2024/01/16 02:01:17;;;;;;;5.18;0.50;;;;;;;-146.25;100.00;52696.69;2008877;29;20916;-64
2024/01/16 02:02:21;;;;;;;3.97;0.50;;;;;;;-146.25;100.00;52725.06;2007958;29;33238;-64
2024/01/16 02:03:26;;;;;;;5.03;0.50;;;;;;;-146.25;100.00;52721.00;2008632;29;20046;-64
2024/01/16 02:04:30;;;;;;;4.93;0.60;;;;;;;-146.25;100.00;52696.69;2001491;29;31751;-64
2024/01/16 02:05:33;;;;;;;3.92;0.40;;;;;;;-146.25;100.00;52688.56;2009030;29;37084;-64
2024/01/16 02:06:35;;;;;;;2.88;0.52;;;;;;;-146.25;100.00;52690.59;2008472;29;20994;-63
2024/01/16 02:07:38;;;;;;;5.20;0.40;;;;;;;-146.25;100.00;52721.00;2008559;29;36357;-63
2024/01/16 02:08:42;;;;;;;6.05;0.60;;;;;;;-146.25;100.00;52708.84;2016125;29;34835;-64
2024/01/16 02:09:44;;;;;;;4.50;0.60;;;;;;;-146.25;100.00;52739.25;2016372;29;34364;-63
2024/01/16 02:10:49;;;;;;;3.75;0.63;;;;;;;-146.25;100.00;52706.81;2016149;29;32245;-64
2024/01/16 02:11:51;;;;;;;5.88;0.55;;;;;;;-146.25;100.00;52733.19;2008425;29;25716;-64
2024/01/16 02:12:52;;;;;;;3.83;0.50;;;;;;;-146.25;100.00;52700.72;2009201;29;20046;-63
2024/01/16 02:13:54;;;;;;;3.25;0.43;;;;;;;-146.25;100.00;52696.69;2017077;29;24855;-64
2024/01/16 02:14:56;;;;;;;4.57;0.50;;;;;;;-146.25;100.00;52712.91;2016184;29;30214;-63
2024/01/16 02:15:58;;;;;;;5.00;0.50;;;;;;;-146.25;100.00;52688.56;2016812;29;34859;-64
2024/01/16 02:16:59;;;;;;;3.60;0.50;;;;;;;-146.25;100.00;52680.47;2015752;29;35518;-64
2024/01/16 02:18:01;;;;;;;3.65;0.40;;;;;;;-146.25;100.00;52712.91;2016436;29;33100;-63
2024/01/16 02:19:05;;;;;;;5.97;0.52;;;;;;;-146.25;100.00;52731.16;2016651;29;20827;-64
2024/01/16 02:20:08;;;;;;;3.28;0.30;;;;;;;-146.25;100.00;52759.53;2016424;29;31528;-64
2024/01/16 02:21:11;;;;;;;5.75;0.50;;;;;;;-146.25;100.00;52708.84;2016048;29;35262;-64
2024/01/16 02:22:21;;;;;;;4.82;0.35;;;;;;;-146.25;100.00;52721.00;2015868;29;28971;-64
2024/01/16 02:23:29;;;;;;;8.82;0.50;;;;;;;-146.25;100.00;52721.00;2008376;29;34921;-65
2024/01/16 02:24:30;;;;;;;4.80;0.32;;;;;;;-146.25;100.00;52692.63;2002349;29;33279;-64
2024/01/16 02:25:32;;;;;;;3.40;0.40;;;;;;;-146.25;100.00;52718.97;2008029;29;33316;-65
2024/01/16 02:26:34;;;;;;;8.52;0.35;;;;;;;-146.25;100.00;52700.72;2016425;29;35391;-63
2024/01/16 02:27:36;;;;;;;4.30;0.70;;;;;;;-146.25;100.00;52696.69;2007743;29;33885;-63
2024/01/16 02:28:38;;;;;;;4.65;0.30;;;;;;;-146.25;100.00;52751.44;2008928;29;20046;-62
2024/01/16 02:29:43;;;;;;;6.03;0.40;;;;;;;-146.25;100.00;52745.34;2016115;29;35363;-63
2024/01/16 02:30:45;;;;;;;3.60;0.30;;;;;;;-146.25;100.00;52680.47;2016252;29;34527;-63
2024/01/16 02:31:47;;;;;;;7.32;0.30;;;;;;;-146.25;100.00;52704.78;2016448;29;20867;-63
2024/01/16 02:32:49;;;;;;;6.53;0.40;;;;;;;-146.25;100.00;52702.75;2016483;29;32612;-64
2024/01/16 02:33:50;;;;;;;5.15;0.50;;;;;;;-146.25;100.00;52723.03;2016087;29;33337;-65
2024/01/16 02:34:52;;;;;;;9.52;0.40;;;;;;;-146.25;100.00;52751.44;2016264;29;34215;-64
2024/01/16 02:35:54;;;;;;;6.85;0.60;;;;;;;-146.25;100.00;52721.00;2016026;29;37212;-64
2024/01/16 02:36:56;;;;;;;5.38;0.40;;;;;;;-146.25;100.00;52676.41;2016872;29;20153;-64
2024/01/16 02:37:57;;;;;;;5.45;0.38;;;;;;;-146.25;100.00;52733.19;2016557;29;20948;-64
2024/01/16 02:39:00;;;;;;;4.60;0.50;;;;;;;-146.25;100.00;52725.06;2016499;29;28306;-62
2024/01/16 02:40:05;;;;;;;8.93;0.30;;;;;;;-146.25;100.00;52680.47;2015776;29;33053;-63
2024/01/16 02:41:07;;;;;;;7.00;0.40;;;;;;;-146.25;100.00;52737.22;2016648;29;38289;-62
2024/01/16 02:42:09;;;;;;;5.03;0.32;;;;;;;-146.25;100.00;52692.63;2016065;29;32248;-63
2024/01/16 02:43:11;;;;;;;5.53;0.30;;;;;;;-146.25;100.00;52729.13;2016768;29;20104;-62
2024/01/16 02:44:13;;;;;;;4.38;0.20;;;;;;;-146.25;100.00;52700.72;2015945;29;36428;-62
2024/01/16 02:45:15;;;;;;;5.95;0.22;;;;;;;-146.25;100.00;52721.00;2016793;29;32193;-62
2024/01/16 02:46:17;;;;;;;5.45;0.30;;;;;;;-146.25;100.00;52696.69;2015693;29;34909;-63
2024/01/16 02:47:18;;;;;;;9.32;0.47;;;;;;;-146.25;100.00;52694.66;2016067;29;37811;-63
2024/01/16 02:48:20;;;;;;;7.22;0.22;;;;;;;-146.25;100.00;52745.34;2015982;29;35378;-64
2024/01/16 02:49:22;;;;;;;8.38;0.65;;;;;;;-146.25;100.00;52692.63;2015976;29;35023;-64
2024/01/16 02:50:24;;;;;;;8.35;0.43;;;;;;;-146.25;100.00;52718.97;2015918;29;35256;-64
2024/01/16 02:51:26;;;;;;;7.88;0.30;;;;;;;-146.25;100.00;52684.50;2016849;29;20045;-64
2024/01/16 02:52:28;;;;;;;6.55;0.50;;;;;;;-146.25;100.00;52729.13;2015071;29;34763;-64
2024/01/16 02:53:30;;;;;;;5.25;0.22;;;;;;;-146.25;100.00;52727.09;2015663;29;37092;-64
2024/01/16 02:54:32;;;;;;;6.35;0.30;;;;;;;-146.25;100.00;52704.78;2016005;29;34316;-63
2024/01/16 02:55:36;;;;;;;7.45;0.20;;;;;;;-146.25;100.00;52692.63;2016370;29;35859;-64
2024/01/16 02:56:38;;;;;;;4.18;0.30;;;;;;;-146.25;100.00;52694.66;2016068;29;33220;-64
2024/01/16 02:57:40;;;;;;;7.35;0.50;;;;;;;-146.25;100.00;52688.56;2016203;29;37483;-63
2024/01/16 02:58:42;;;;;;;5.65;0.25;;;;;;;-146.25;100.00;52698.72;2015736;29;20918;-64
2024/01/16 02:59:44;;;;;;;6.43;0.40;;;;;;;-146.25;100.00;52749.41;2015936;29;20049;-64
2024/01/16 03:00:46;;;;;;;7.47;0.35;;;;;;;-146.25;100.00;52735.22;2015005;29;37820;-63
2024/01/16 03:01:51;;;;;;;4.68;0.20;;;;;;;-146.25;100.00;52696.69;2015866;29;36802;-63
2024/01/16 03:02:53;;;;;;;5.78;0.20;;;;;;;-146.25;100.00;52725.06;2016130;29;20616;-64
2024/01/16 03:03:57;;;;;;;6.50;0.30;;;;;;;-146.25;100.00;52714.94;2016190;29;34852;-63
2024/01/16 03:05:01;;;;;;;5.35;0.30;;;;;;;-146.25;100.00;52706.81;2015453;29;37739;-64
2024/01/16 03:06:04;;;;;;;8.50;0.60;;;;;;;-146.25;100.00;52716.97;2016831;29;20185;-63
2024/01/16 03:07:06;;;;;;;7.65;0.95;;;;;;;-146.25;100.00;52688.56;2016054;29;35466;-63
2024/01/16 03:08:08;;;;;;;4.85;0.30;;;;;;;-146.25;100.00;52698.72;2015810;29;37768;-63
2024/01/16 03:09:11;;;;;;;3.45;0.22;;;;;;;-146.25;100.00;52698.72;2016580;29;20739;-63
2024/01/16 03:10:15;;;;;;;7.13;0.30;;;;;;;-146.25;100.00;52692.63;2016753;29;20049;-63
2024/01/16 03:11:17;;;;;;;6.80;0.35;;;;;;;-146.25;100.00;52735.22;2016006;29;36496;-63
2024/01/16 03:12:21;;;;;;;4.88;0.20;;;;;;;-146.25;100.00;52696.69;2016414;29;32781;-64
2024/01/16 03:13:22;;;;;;;8.25;0.40;;;;;;;-146.25;100.00;52708.84;2015332;29;35478;-64
2024/01/16 03:14:24;;;;;;;6.40;0.20;;;;;;;-146.25;100.00;52718.97;2016254;29;32868;-64
2024/01/16 03:15:26;;;;;;;7.88;0.38;;;;;;;-146.25;100.00;52714.94;2015583;29;32398;-63
2024/01/16 03:16:33;;;;;;;6.82;0.25;;;;;;;-146.25;100.00;52688.56;2016868;29;20037;-63
2024/01/16 03:17:35;;;;;;;7.63;0.60;;;;;;;-146.25;100.00;52712.91;2016151;29;20038;-63
2024/01/16 03:18:38;;;;;;;7.13;0.40;;;;;;;-146.25;100.00;52706.81;2016099;29;39837;-63
2024/01/16 03:19:40;;;;;;;3.70;0.47;;;;;;;-146.25;100.00;52698.72;2015633;29;32583;-63
2024/01/16 03:20:42;;;;;;;8.70;0.40;;;;;;;-146.25;100.00;52704.78;2016655;29;20172;-63
2024/01/16 03:21:46;;;;;;;8.50;0.50;;;;;;;-146.25;100.00;52714.94;2015515;29;39133;-63
2024/01/16 03:22:48;;;;;;;5.97;0.50;;;;;;;-146.25;100.00;52670.31;2015553;29;35062;-63
2024/01/16 03:23:50;;;;;;;8.32;0.57;;;;;;;-146.25;100.00;52716.97;2016264;29;20084;-64
2024/01/16 03:24:54;;;;;;;4.25;0.22;;;;;;;-146.25;100.00;52727.09;2015976;29;34833;-64
2024/01/16 03:25:57;;;;;;;5.75;0.28;;;;;;;-146.25;100.00;52716.97;2015493;29;35249;-62
2024/01/16 03:27:01;;;;;;;6.00;0.28;;;;;;;-146.25;100.00;52731.16;2016608;29;20046;-64
2024/01/16 03:28:07;;;;;;;3.83;0.20;;;;;;;-146.25;100.00;52704.78;2015445;29;36833;-64
2024/01/16 03:29:12;;;;;;;8.85;0.30;;;;;;;-146.25;100.00;52737.22;2016935;29;20872;-63
2024/01/16 03:30:14;;;;;;;5.28;0.30;;;;;;;-146.25;100.00;52708.84;2016821;29;20050;-63
2024/01/16 03:31:16;;;;;;;9.15;0.73;;;;;;;-146.25;100.00;52751.44;2015963;29;34676;-63
2024/01/16 03:32:18;;;;;;;8.10;0.60;;;;;;;-146.25;100.00;52723.03;2015459;29;32385;-63
2024/01/16 03:33:20;;;;;;;12.70;0.65;;;;;;;-146.25;100.00;52727.09;2016564;29;20060;-61
2024/01/16 03:34:23;;;;;;;4.68;0.32;;;;;;;-146.25;100.00;52692.63;2015426;29;37146;-62
2024/01/16 03:35:25;;;;;;;11.63;0.40;;;;;;;-146.25;100.00;52700.72;2016102;29;20041;-61
2024/01/16 03:36:29;;;;;;;6.15;0.20;;;;;;;-146.25;100.00;52735.22;2014963;29;34886;-64
2024/01/16 03:37:31;;;;;;;7.78;0.17;;;;;;;-146.25;100.00;52731.16;2016033;29;30647;-63
2024/01/16 03:38:33;;;;;;;5.50;0.40;;;;;;;-146.25;100.00;52700.72;2015609;29;32897;-64
2024/01/16 03:39:35;;;;;;;8.13;0.32;;;;;;;-146.25;100.00;52735.22;2015930;29;34342;-64
2024/01/16 03:40:37;;;;;;;7.20;0.40;;;;;;;-146.25;100.00;52727.09;2015734;29;36155;-63
2024/01/16 03:41:39;;;;;;;3.45;0.20;;;;;;;-146.25;100.00;52700.72;2016168;29;34660;-64
2024/01/16 03:42:40;;;;;;;6.43;0.30;;;;;;;-146.25;100.00;52712.91;2015623;29;35998;-62
2024/01/16 03:43:43;;;;;;;5.97;0.20;;;;;;;-146.25;100.00;52727.09;2016254;29;20046;-62
2024/01/16 03:44:45;;;;;;;6.63;0.32;;;;;;;-146.25;100.00;52698.72;2015662;29;35134;-61
2024/01/16 03:45:48;;;;;;;6.80;0.25;;;;;;;-146.25;100.00;52725.06;2015968;29;35412;-62
2024/01/16 03:46:50;;;;;;;4.25;0.20;;;;;;;-146.25;100.00;52714.94;2015389;29;32975;-62
2024/01/16 03:47:52;;;;;;;8.15;0.50;;;;;;;-146.25;100.00;52694.66;2015779;29;34783;-63
2024/01/16 03:48:56;;;;;;;3.70;0.38;;;;;;;-146.25;100.00;52710.88;2016325;29;20045;-63
2024/01/16 03:49:58;;;;;;;9.07;0.30;;;;;;;-146.25;100.00;52747.38;2015547;29;35930;-63
2024/01/16 03:51:00;;;;;;;3.90;0.25;;;;;;;-146.25;100.00;52702.75;2016338;29;20046;-64
2024/01/16 03:52:02;;;;;;;4.47;0.20;;;;;;;-146.25;100.00;52696.69;2016379;29;36459;-62
2024/01/16 03:53:06;;;;;;;4.90;0.32;;;;;;;-146.25;100.00;52729.13;2015546;29;32368;-64
2024/01/16 03:54:08;;;;;;;3.63;0.38;;;;;;;-146.25;100.00;52718.97;2015800;29;35347;-62
2024/01/16 03:55:10;;;;;;;6.03;0.20;;;;;;;-146.25;100.00;52700.72;2016141;29;20114;-62
2024/01/16 03:56:12;;;;;;;7.93;0.40;;;;;;;-146.25;100.00;52708.84;2016593;29;20034;-64
2024/01/16 03:57:14;;;;;;;9.23;0.40;;;;;;;-146.25;100.00;52755.47;2015717;29;34233;-62
2024/01/16 03:58:18;;;;;;;10.68;0.30;;;;;;;-146.25;100.00;52674.38;2015991;29;34499;-62
2024/01/16 03:59:20;;;;;;;2.70;0.20;;;;;;;-146.25;100.00;52696.69;2016183;29;20053;-61
2024/01/16 04:00:21;;;;;;;5.03;0.30;;;;;;;-146.25;100.00;52710.88;2016015;29;36122;-62
2024/01/16 04:01:33;;;;;;;4.80;0.20;;;;;;;-146.25;100.00;52739.25;2016048;29;33586;-63
2024/01/16 04:02:37;;;;;;;4.10;0.30;;;;;;;-146.25;100.00;52712.91;2015914;29;32407;-62
2024/01/16 04:03:39;;;;;;;10.00;0.30;;;;;;;-146.25;100.00;52710.88;2014524;29;36964;-62
2024/01/16 04:04:41;;;;;;;4.13;0.30;;;;;;;-146.25;100.00;52708.84;2015253;29;34017;-62
2024/01/16 04:05:43;;;;;;;7.55;0.30;;;;;;;-146.25;100.00;52727.09;2015989;29;20038;-62
2024/01/16 04:06:48;;;;;;;5.03;0.30;;;;;;;-146.25;100.00;52702.75;2015921;29;31573;-62
2024/01/16 04:07:50;;;;;;;7.07;0.32;;;;;;;-146.25;100.00;52696.69;2015711;29;33519;-62
2024/01/16 04:08:52;;;;;;;5.47;0.30;;;;;;;-146.25;100.00;52692.63;2015797;29;34736;-62
2024/01/16 04:09:56;;;;;;;7.50;0.30;;;;;;;-146.25;100.00;52729.13;2015318;29;38056;-62
2024/01/16 04:10:57;;;;;;;4.75;0.28;;;;;;;-146.25;100.00;52716.97;2015835;29;31937;-62
2024/01/16 04:11:59;;;;;;;6.03;0.30;;;;;;;-146.25;100.00;52694.66;2015502;29;35654;-62
2024/01/16 04:13:02;;;;;;;6.25;0.30;;;;;;;-146.25;100.00;52729.13;2016077;29;31521;-62
2024/01/16 04:14:05;;;;;;;5.22;0.20;;;;;;;-146.25;100.00;52714.94;2016490;29;20048;-63
2024/01/16 04:15:07;;;;;;;6.20;0.30;;;;;;;-146.25;100.00;52737.22;2015095;29;38501;-62
2024/01/16 04:16:09;;;;;;;8.52;0.30;;;;;;;-146.25;100.00;52727.09;2015047;29;34867;-63
2024/01/16 04:17:13;;;;;;;7.35;0.28;;;;;;;-146.25;100.00;52696.69;2015001;29;34425;-62
2024/01/16 04:18:15;;;;;;;6.90;0.30;;;;;;;-146.25;100.00;52712.91;2015365;29;22470;-63
2024/01/16 04:19:16;;;;;;;8.45;0.32;;;;;;;-146.25;100.00;52712.91;2016255;29;20033;-63
2024/01/16 04:20:18;;;;;;;4.95;0.30;;;;;;;-146.25;100.00;52716.97;2015347;29;31857;-63
2024/01/16 04:21:20;;;;;;;6.75;0.30;;;;;;;-146.25;100.00;52718.97;2016046;29;32246;-62
2024/01/16 04:22:22;;;;;;;6.03;0.20;;;;;;;-146.25;100.00;52696.69;2017034;29;20052;-62
2024/01/16 04:23:24;;;;;;;4.38;0.20;;;;;;;-146.25;100.00;52696.69;2016905;29;31940;-63
2024/01/16 04:24:26;;;;;;;9.40;0.30;;;;;;;-146.25;100.00;52712.91;2017131;29;20034;-62
2024/01/16 04:25:27;;;;;;;3.28;0.30;;;;;;;-146.25;100.00;52733.19;2016723;29;34218;-63
2024/01/16 04:26:29;;;;;;;9.48;0.45;;;;;;;-146.25;100.00;52676.41;2016903;29;34945;-62
2024/01/16 04:27:33;;;;;;;3.97;0.30;;;;;;;-146.25;100.00;52725.06;2017130;29;34897;-63
2024/01/16 04:28:37;;;;;;;5.20;0.35;;;;;;;-146.25;100.00;52670.31;2017127;29;20838;-64
2024/01/16 04:29:38;;;;;;;6.63;0.52;;;;;;;-146.25;100.00;52686.53;2016802;29;37103;-62
2024/01/16 04:30:40;;;;;;;7.18;0.47;;;;;;;-146.25;100.00;52716.97;2016953;29;33192;-62
2024/01/16 04:31:43;;;;;;;9.27;0.52;;;;;;;-146.25;100.00;52731.16;2017749;29;20061;-63
2024/01/16 04:32:44;;;;;;;8.93;0.40;;;;;;;-146.25;100.00;52690.59;2017024;29;29397;-64
2024/01/16 04:33:46;;;;;;;5.70;0.30;;;;;;;-146.25;100.00;52753.47;2017610;29;20049;-64
2024/01/16 04:34:50;;;;;;;7.85;0.30;;;;;;;-146.25;100.00;52737.22;2016501;29;38341;-62
2024/01/16 04:35:52;;;;;;;6.30;0.45;;;;;;;-146.25;100.00;52690.59;2016855;29;35514;-63
2024/01/16 04:36:54;;;;;;;7.40;0.30;;;;;;;-146.25;100.00;52725.06;2017280;29;33423;-64
2024/01/16 04:37:56;;;;;;;4.75;0.25;;;;;;;-146.25;100.00;52743.31;2017062;29;32885;-63
2024/01/16 04:38:58;;;;;;;13.65;0.45;;;;;;;-146.25;100.00;52684.50;2017107;29;20401;-64
2024/01/16 04:40:01;;;;;;;11.02;0.30;;;;;;;-146.25;100.00;52716.97;2016812;29;35613;-64
2024/01/16 04:41:06;;;;;;;5.70;0.40;;;;;;;-146.25;100.00;52696.69;2016543;29;32305;-64
2024/01/16 04:42:11;;;;;;;8.88;0.45;;;;;;;-146.25;100.00;52747.38;2015788;29;34270;-64
2024/01/16 04:43:15;;;;;;;9.23;0.65;;;;;;;-146.25;100.00;52749.41;2015833;29;34522;-62
2024/01/16 04:44:18;;;;;;;6.93;0.40;;;;;;;-146.25;100.00;52725.06;2017621;29;20115;-64
2024/01/16 04:45:20;;;;;;;4.63;0.20;;;;;;;-146.25;100.00;52723.03;2016516;29;35016;-62